Terminal Aerodrome Forecast
Issued by NWS Blacksburg, VA

Current Version | Previous Version | Graphics & Text | Print | Product List | Glossary On
Versions: 1 2 3 4 5 6 7 8 9 10 11 12 13 14 15 16 17 18 19 20 21 22 23 24 25 26 27 28 29 30 31 32
000
FTUS41 KRNK 092330
TAFBLF
TAF
KBLF 092330Z 1000/1024 28012G18KT 4SM -SHSN BKN015 OVC025
     FM100600 30012KT 5SM -SHSN OVC015
      TEMPO 1009/1011 1SM -SHSN OVC009
     FM101200 29012G20KT 4SM -SHSN OVC020
     FM101900 29012G19KT 3SM -SHSN OVC015=

USA.gov is the U.S. government's official web portal to all federal, state and local government web resources and services.